sensor_id;sensor_type;location;lat;lon;timestamp;P1;durP1;ratioP1;P2;durP2;ratioP2
74614;SDS011;63121;51.458;-0.110;2023-06-14T00:00:32;6.80;;;2.13;;
74614;SDS011;63121;51.458;-0.110;2023-06-14T00:02:59;6.28;;;1.65;;
74614;SDS011;63121;51.458;-0.110;2023-06-14T00:05:25;6.30;;;1.80;;
74614;SDS011;63121;51.458;-0.110;2023-06-14T00:07:51;5.32;;;1.52;;
74614;SDS011;63121;51.458;-0.110;2023-06-14T00:10:18;7.55;;;1.83;;
74614;SDS011;63121;51.458;-0.110;2023-06-14T00:12:44;7.40;;;1.60;;
74614;SDS011;63121;51.458;-0.110;2023-06-14T00:15:09;7.87;;;1.83;;
74614;SDS011;63121;51.458;-0.110;2023-06-14T00:17:35;5.50;;;1.40;;
74614;SDS011;63121;51.458;-0.110;2023-06-14T00:20:02;6.72;;;1.80;;
74614;SDS011;63121;51.458;-0.110;2023-06-14T00:22:30;5.30;;;1.65;;
74614;SDS011;63121;51.458;-0.110;2023-06-14T00:24:56;4.43;;;1.50;;
74614;SDS011;63121;51.458;-0.110;2023-06-14T00:27:22;6.55;;;1.40;;
74614;SDS011;63121;51.458;-0.110;2023-06-14T00:29:47;4.63;;;1.58;;
74614;SDS011;63121;51.458;-0.110;2023-06-14T00:32:12;5.75;;;1.42;;
74614;SDS011;63121;51.458;-0.110;2023-06-14T00:34:38;5.47;;;1.58;;
74614;SDS011;63121;51.458;-0.110;2023-06-14T00:37:03;5.70;;;1.70;;
74614;SDS011;63121;51.458;-0.110;2023-06-14T00:39:29;7.25;;;1.70;;
74614;SDS011;63121;51.458;-0.110;2023-06-14T00:41:54;5.53;;;1.50;;
74614;SDS011;63121;51.458;-0.110;2023-06-14T00:44:20;6.30;;;1.45;;
74614;SDS011;63121;51.458;-0.110;2023-06-14T00:46:46;7.50;;;1.90;;
74614;SDS011;63121;51.458;-0.110;2023-06-14T00:49:12;6.30;;;1.77;;
74614;SDS011;63121;51.458;-0.110;2023-06-14T00:51:40;6.25;;;2.00;;
74614;SDS011;63121;51.458;-0.110;2023-06-14T00:54:06;6.45;;;1.73;;
74614;SDS011;63121;51.458;-0.110;2023-06-14T00:56:31;5.28;;;1.80;;
74614;SDS011;63121;51.458;-0.110;2023-06-14T00:58:57;7.60;;;1.75;;
74614;SDS011;63121;51.458;-0.110;2023-06-14T01:01:23;7.35;;;1.75;;
74614;SDS011;63121;51.458;-0.110;2023-06-14T01:03:49;9.18;;;1.85;;
74614;SDS011;63121;51.458;-0.110;2023-06-14T01:08:57;10.85;;;2.20;;
74614;SDS011;63121;51.458;-0.110;2023-06-14T01:11:27;5.40;;;1.85;;
74614;SDS011;63121;51.458;-0.110;2023-06-14T01:16:28;7.35;;;1.75;;
74614;SDS011;63121;51.458;-0.110;2023-06-14T01:18:56;6.35;;;1.80;;
74614;SDS011;63121;51.458;-0.110;2023-06-14T01:21:23;9.48;;;2.17;;
74614;SDS011;63121;51.458;-0.110;2023-06-14T01:26:18;7.68;;;2.42;;
74614;SDS011;63121;51.458;-0.110;2023-06-14T01:28:45;7.30;;;1.67;;
74614;SDS011;63121;51.458;-0.110;2023-06-14T01:31:15;9.45;;;2.00;;
74614;SDS011;63121;51.458;-0.110;2023-06-14T01:33:43;6.90;;;2.00;;
74614;SDS011;63121;51.458;-0.110;2023-06-14T01:36:09;9.75;;;2.05;;
74614;SDS011;63121;51.458;-0.110;2023-06-14T01:38:35;10.43;;;2.00;;
74614;SDS011;63121;51.458;-0.110;2023-06-14T01:41:02;7.75;;;2.47;;
74614;SDS011;63121;51.458;-0.110;2023-06-14T01:43:29;6.60;;;1.50;;
74614;SDS011;63121;51.458;-0.110;2023-06-14T01:45:56;7.43;;;1.95;;
74614;SDS011;63121;51.458;-0.110;2023-06-14T01:48:22;6.40;;;1.83;;
74614;SDS011;63121;51.458;-0.110;2023-06-14T01:50:48;8.93;;;1.88;;
74614;SDS011;63121;51.458;-0.110;2023-06-14T01:53:15;6.15;;;1.73;;
74614;SDS011;63121;51.458;-0.110;2023-06-14T01:55:41;5.65;;;1.83;;
74614;SDS011;63121;51.458;-0.110;2023-06-14T01:58:09;8.10;;;2.00;;
74614;SDS011;63121;51.458;-0.110;2023-06-14T02:00:35;5.43;;;2.00;;
74614;SDS011;63121;51.458;-0.110;2023-06-14T02:03:00;8.45;;;1.98;;
74614;SDS011;63121;51.458;-0.110;2023-06-14T02:05:27;8.82;;;2.10;;
74614;SDS011;63121;51.458;-0.110;2023-06-14T02:07:52;10.17;;;2.20;;
74614;SDS011;63121;51.458;-0.110;2023-06-14T02:10:18;9.95;;;2.45;;
74614;SDS011;63121;51.458;-0.110;2023-06-14T02:12:44;7.90;;;1.92;;
74614;SDS011;63121;51.458;-0.110;2023-06-14T02:15:09;7.78;;;2.03;;
74614;SDS011;63121;51.458;-0.110;2023-06-14T02:17:41;8.23;;;2.08;;
74614;SDS011;63121;51.458;-0.110;2023-06-14T02:20:07;15.48;;;2.58;;
74614;SDS011;63121;51.458;-0.110;2023-06-14T02:22:33;5.72;;;2.03;;
74614;SDS011;63121;51.458;-0.110;2023-06-14T02:24:58;7.13;;;2.10;;
74614;SDS011;63121;51.458;-0.110;2023-06-14T02:27:24;7.50;;;2.05;;
74614;SDS011;63121;51.458;-0.110;2023-06-14T02:29:49;8.60;;;2.10;;
74614;SDS011;63121;51.458;-0.110;2023-06-14T02:32:15;8.37;;;2.00;;
74614;SDS011;63121;51.458;-0.110;2023-06-14T02:34:40;7.17;;;2.30;;
74614;SDS011;63121;51.458;-0.110;2023-06-14T02:37:06;8.70;;;2.15;;
74614;SDS011;63121;51.458;-0.110;2023-06-14T02:39:32;7.38;;;2.20;;
74614;SDS011;63121;51.458;-0.110;2023-06-14T02:41:57;7.10;;;2.05;;
74614;SDS011;63121;51.458;-0.110;2023-06-14T02:44:26;7.35;;;2.33;;
74614;SDS011;63121;51.458;-0.110;2023-06-14T02:46:54;9.20;;;2.20;;
74614;SDS011;63121;51.458;-0.110;2023-06-14T02:49:20;9.82;;;2.20;;
74614;SDS011;63121;51.458;-0.110;2023-06-14T02:51:46;8.80;;;2.47;;
74614;SDS011;63121;51.458;-0.110;2023-06-14T02:54:12;8.33;;;2.00;;
74614;SDS011;63121;51.458;-0.110;2023-06-14T02:56:37;9.98;;;2.58;;
74614;SDS011;63121;51.458;-0.110;2023-06-14T02:59:02;7.33;;;2.07;;
74614;SDS011;63121;51.458;-0.110;2023-06-14T03:01:28;9.38;;;2.05;;
74614;SDS011;63121;51.458;-0.110;2023-06-14T03:04:02;7.35;;;2.00;;
74614;SDS011;63121;51.458;-0.110;2023-06-14T03:06:28;9.77;;;2.40;;
74614;SDS011;63121;51.458;-0.110;2023-06-14T03:08:58;7.97;;;2.10;;
74614;SDS011;63121;51.458;-0.110;2023-06-14T03:11:25;8.75;;;2.60;;
74614;SDS011;63121;51.458;-0.110;2023-06-14T03:13:51;8.52;;;2.15;;
74614;SDS011;63121;51.458;-0.110;2023-06-14T03:16:17;9.48;;;2.33;;
74614;SDS011;63121;51.458;-0.110;2023-06-14T03:18:45;6.35;;;2.42;;
74614;SDS011;63121;51.458;-0.110;2023-06-14T03:21:10;8.95;;;2.38;;
74614;SDS011;63121;51.458;-0.110;2023-06-14T03:23:36;9.40;;;2.45;;
74614;SDS011;63121;51.458;-0.110;2023-06-14T03:26:01;9.18;;;2.45;;
74614;SDS011;63121;51.458;-0.110;2023-06-14T03:28:27;6.88;;;2.10;;
74614;SDS011;63121;51.458;-0.110;2023-06-14T03:30:52;8.13;;;2.35;;
74614;SDS011;63121;51.458;-0.110;2023-06-14T03:33:18;9.90;;;2.58;;
74614;SDS011;63121;51.458;-0.110;2023-06-14T03:35:43;10.03;;;2.50;;
74614;SDS011;63121;51.458;-0.110;2023-06-14T03:38:08;10.25;;;2.63;;
74614;SDS011;63121;51.458;-0.110;2023-06-14T03:40:34;7.45;;;2.30;;
74614;SDS011;63121;51.458;-0.110;2023-06-14T03:42:59;12.52;;;2.78;;
74614;SDS011;63121;51.458;-0.110;2023-06-14T03:45:25;8.07;;;2.42;;
74614;SDS011;63121;51.458;-0.110;2023-06-14T03:47:50;11.23;;;2.63;;
74614;SDS011;63121;51.458;-0.110;2023-06-14T03:50:17;9.80;;;2.58;;
74614;SDS011;63121;51.458;-0.110;2023-06-14T03:52:43;9.35;;;2.72;;
74614;SDS011;63121;51.458;-0.110;2023-06-14T03:55:09;8.65;;;2.38;;
74614;SDS011;63121;51.458;-0.110;2023-06-14T03:57:36;7.53;;;2.50;;
74614;SDS011;63121;51.458;-0.110;2023-06-14T04:00:01;8.48;;;2.70;;
74614;SDS011;63121;51.458;-0.110;2023-06-14T04:02:29;9.80;;;2.55;;
74614;SDS011;63121;51.458;-0.110;2023-06-14T04:04:55;9.20;;;2.47;;
74614;SDS011;63121;51.458;-0.110;2023-06-14T04:07:20;9.15;;;2.90;;
74614;SDS011;63121;51.458;-0.110;2023-06-14T04:09:46;12.63;;;3.10;;
74614;SDS011;63121;51.458;-0.110;2023-06-14T04:12:12;10.45;;;2.70;;
74614;SDS011;63121;51.458;-0.110;2023-06-14T04:14:38;9.75;;;3.00;;
74614;SDS011;63121;51.458;-0.110;2023-06-14T04:17:04;8.77;;;2.55;;
74614;SDS011;63121;51.458;-0.110;2023-06-14T04:19:30;11.27;;;2.72;;
74614;SDS011;63121;51.458;-0.110;2023-06-14T04:21:55;8.77;;;2.85;;
74614;SDS011;63121;51.458;-0.110;2023-06-14T04:24:21;7.68;;;2.60;;
74614;SDS011;63121;51.458;-0.110;2023-06-14T04:26:48;9.10;;;2.88;;
74614;SDS011;63121;51.458;-0.110;2023-06-14T04:29:14;10.20;;;2.70;;
74614;SDS011;63121;51.458;-0.110;2023-06-14T04:31:45;9.90;;;2.55;;
74614;SDS011;63121;51.458;-0.110;2023-06-14T04:34:11;7.35;;;3.03;;
74614;SDS011;63121;51.458;-0.110;2023-06-14T04:36:44;8.90;;;3.25;;
74614;SDS011;63121;51.458;-0.110;2023-06-14T04:39:18;8.57;;;2.70;;
74614;SDS011;63121;51.458;-0.110;2023-06-14T04:41:44;9.75;;;3.03;;
74614;SDS011;63121;51.458;-0.110;2023-06-14T04:44:10;9.90;;;2.67;;
74614;SDS011;63121;51.458;-0.110;2023-06-14T04:46:36;7.55;;;2.72;;
74614;SDS011;63121;51.458;-0.110;2023-06-14T04:49:17;11.90;;;3.03;;
74614;SDS011;63121;51.458;-0.110;2023-06-14T04:51:43;11.60;;;2.92;;
74614;SDS011;63121;51.458;-0.110;2023-06-14T04:54:09;15.45;;;3.30;;
74614;SDS011;63121;51.458;-0.110;2023-06-14T04:56:39;10.05;;;2.90;;
74614;SDS011;63121;51.458;-0.110;2023-06-14T04:59:04;9.98;;;2.90;;
74614;SDS011;63121;51.458;-0.110;2023-06-14T05:01:30;10.17;;;2.67;;
74614;SDS011;63121;51.458;-0.110;2023-06-14T05:03:57;8.65;;;2.67;;
74614;SDS011;63121;51.458;-0.110;2023-06-14T05:06:23;9.02;;;2.53;;
74614;SDS011;63121;51.458;-0.110;2023-06-14T05:08:48;7.85;;;2.40;;
74614;SDS011;63121;51.458;-0.110;2023-06-14T05:11:14;8.10;;;2.58;;
74614;SDS011;63121;51.458;-0.110;2023-06-14T05:13:39;11.82;;;2.55;;
74614;SDS011;63121;51.458;-0.110;2023-06-14T05:16:06;7.90;;;2.45;;
74614;SDS011;63121;51.458;-0.110;2023-06-14T05:18:31;9.70;;;2.85;;
74614;SDS011;63121;51.458;-0.110;2023-06-14T05:20:59;9.25;;;2.75;;
74614;SDS011;63121;51.458;-0.110;2023-06-14T05:23:25;13.23;;;2.88;;
74614;SDS011;63121;51.458;-0.110;2023-06-14T05:25:50;11.57;;;2.42;;
74614;SDS011;63121;51.458;-0.110;2023-06-14T05:28:15;11.90;;;2.67;;
74614;SDS011;63121;51.458;-0.110;2023-06-14T05:30:41;9.15;;;2.60;;
74614;SDS011;63121;51.458;-0.110;2023-06-14T05:33:07;6.93;;;2.38;;
74614;SDS011;63121;51.458;-0.110;2023-06-14T05:35:32;11.20;;;2.83;;
74614;SDS011;63121;51.458;-0.110;2023-06-14T05:37:58;9.18;;;2.58;;
74614;SDS011;63121;51.458;-0.110;2023-06-14T05:40:23;11.65;;;2.70;;
74614;SDS011;63121;51.458;-0.110;2023-06-14T05:42:48;12.00;;;2.60;;
74614;SDS011;63121;51.458;-0.110;2023-06-14T05:45:14;9.35;;;2.90;;
74614;SDS011;63121;51.458;-0.110;2023-06-14T05:47:41;10.40;;;2.78;;
74614;SDS011;63121;51.458;-0.110;2023-06-14T05:50:07;14.40;;;3.60;;
74614;SDS011;63121;51.458;-0.110;2023-06-14T05:52:33;10.43;;;2.72;;
74614;SDS011;63121;51.458;-0.110;2023-06-14T05:54:59;10.15;;;3.33;;
74614;SDS011;63121;51.458;-0.110;2023-06-14T05:57:25;7.97;;;2.88;;
74614;SDS011;63121;51.458;-0.110;2023-06-14T05:59:50;10.00;;;2.90;;
74614;SDS011;63121;51.458;-0.110;2023-06-14T06:02:16;8.88;;;2.65;;
74614;SDS011;63121;51.458;-0.110;2023-06-14T06:04:41;13.27;;;3.15;;
74614;SDS011;63121;51.458;-0.110;2023-06-14T06:07:07;10.80;;;2.83;;
74614;SDS011;63121;51.458;-0.110;2023-06-14T06:09:32;9.97;;;2.80;;
74614;SDS011;63121;51.458;-0.110;2023-06-14T06:11:58;9.55;;;2.60;;
74614;SDS011;63121;51.458;-0.110;2023-06-14T06:14:23;14.68;;;3.33;;
74614;SDS011;63121;51.458;-0.110;2023-06-14T06:16:49;9.80;;;2.80;;
74614;SDS011;63121;51.458;-0.110;2023-06-14T06:19:14;9.53;;;2.60;;
74614;SDS011;63121;51.458;-0.110;2023-06-14T06:21:40;11.48;;;3.05;;
74614;SDS011;63121;51.458;-0.110;2023-06-14T06:24:05;9.40;;;2.75;;
74614;SDS011;63121;51.458;-0.110;2023-06-14T06:26:31;8.93;;;2.45;;
74614;SDS011;63121;51.458;-0.110;2023-06-14T06:28:57;12.88;;;2.83;;
74614;SDS011;63121;51.458;-0.110;2023-06-14T06:31:24;10.48;;;3.42;;
74614;SDS011;63121;51.458;-0.110;2023-06-14T06:33:50;9.80;;;2.78;;
74614;SDS011;63121;51.458;-0.110;2023-06-14T06:36:16;11.60;;;3.10;;
74614;SDS011;63121;51.458;-0.110;2023-06-14T06:38:41;12.48;;;3.20;;
74614;SDS011;63121;51.458;-0.110;2023-06-14T06:41:07;11.90;;;2.97;;
74614;SDS011;63121;51.458;-0.110;2023-06-14T06:43:32;12.57;;;3.05;;
74614;SDS011;63121;51.458;-0.110;2023-06-14T06:45:58;11.75;;;3.33;;
74614;SDS011;63121;51.458;-0.110;2023-06-14T06:48:23;9.82;;;2.85;;
74614;SDS011;63121;51.458;-0.110;2023-06-14T06:50:48;8.70;;;2.88;;
74614;SDS011;63121;51.458;-0.110;2023-06-14T06:53:14;10.15;;;3.03;;
74614;SDS011;63121;51.458;-0.110;2023-06-14T06:55:40;14.20;;;3.33;;
74614;SDS011;63121;51.458;-0.110;2023-06-14T06:58:05;12.50;;;3.05;;
74614;SDS011;63121;51.458;-0.110;2023-06-14T07:00:31;8.95;;;3.25;;
74614;SDS011;63121;51.458;-0.110;2023-06-14T07:02:56;10.30;;;2.72;;
74614;SDS011;63121;51.458;-0.110;2023-06-14T07:05:22;10.45;;;3.45;;
74614;SDS011;63121;51.458;-0.110;2023-06-14T07:07:48;10.20;;;3.35;;
74614;SDS011;63121;51.458;-0.110;2023-06-14T07:10:13;13.02;;;3.58;;
74614;SDS011;63121;51.458;-0.110;2023-06-14T07:12:39;11.43;;;3.10;;
74614;SDS011;63121;51.458;-0.110;2023-06-14T07:15:08;10.90;;;3.00;;
74614;SDS011;63121;51.458;-0.110;2023-06-14T07:17:33;9.25;;;3.10;;
74614;SDS011;63121;51.458;-0.110;2023-06-14T07:19:59;14.50;;;3.47;;
74614;SDS011;63121;51.458;-0.110;2023-06-14T07:22:25;9.70;;;3.17;;
74614;SDS011;63121;51.458;-0.110;2023-06-14T07:24:51;10.48;;;3.13;;
74614;SDS011;63121;51.458;-0.110;2023-06-14T07:27:16;10.40;;;3.08;;
74614;SDS011;63121;51.458;-0.110;2023-06-14T07:29:42;12.30;;;3.60;;
74614;SDS011;63121;51.458;-0.110;2023-06-14T07:32:07;14.48;;;3.50;;
74614;SDS011;63121;51.458;-0.110;2023-06-14T07:34:32;10.63;;;3.45;;
74614;SDS011;63121;51.458;-0.110;2023-06-14T07:36:58;11.80;;;3.33;;
74614;SDS011;63121;51.458;-0.110;2023-06-14T07:39:23;11.70;;;3.13;;
74614;SDS011;63121;51.458;-0.110;2023-06-14T07:41:49;9.80;;;3.00;;
74614;SDS011;63121;51.458;-0.110;2023-06-14T07:44:14;12.18;;;4.03;;
74614;SDS011;63121;51.458;-0.110;2023-06-14T07:46:40;9.82;;;3.10;;
74614;SDS011;63121;51.458;-0.110;2023-06-14T07:49:06;15.48;;;3.50;;
74614;SDS011;63121;51.458;-0.110;2023-06-14T07:51:32;18.77;;;3.35;;
74614;SDS011;63121;51.458;-0.110;2023-06-14T07:53:59;9.55;;;2.88;;
74614;SDS011;63121;51.458;-0.110;2023-06-14T07:56:25;7.75;;;2.95;;
74614;SDS011;63121;51.458;-0.110;2023-06-14T07:58:51;9.35;;;3.00;;
74614;SDS011;63121;51.458;-0.110;2023-06-14T08:01:16;11.50;;;3.03;;
74614;SDS011;63121;51.458;-0.110;2023-06-14T08:03:42;13.75;;;3.20;;
74614;SDS011;63121;51.458;-0.110;2023-06-14T08:06:08;8.82;;;3.22;;
74614;SDS011;63121;51.458;-0.110;2023-06-14T08:08:34;13.15;;;3.25;;
74614;SDS011;63121;51.458;-0.110;2023-06-14T08:11:00;12.75;;;2.95;;
74614;SDS011;63121;51.458;-0.110;2023-06-14T08:13:25;11.13;;;3.03;;
74614;SDS011;63121;51.458;-0.110;2023-06-14T08:15:50;8.18;;;3.03;;
74614;SDS011;63121;51.458;-0.110;2023-06-14T08:18:16;13.68;;;3.53;;
74614;SDS011;63121;51.458;-0.110;2023-06-14T08:20:41;11.95;;;3.38;;
74614;SDS011;63121;51.458;-0.110;2023-06-14T08:23:07;11.10;;;3.15;;
74614;SDS011;63121;51.458;-0.110;2023-06-14T08:25:33;9.18;;;3.03;;
74614;SDS011;63121;51.458;-0.110;2023-06-14T08:27:59;12.50;;;3.05;;
74614;SDS011;63121;51.458;-0.110;2023-06-14T08:30:25;13.38;;;3.35;;
74614;SDS011;63121;51.458;-0.110;2023-06-14T08:32:51;10.13;;;3.13;;
74614;SDS011;63121;51.458;-0.110;2023-06-14T08:35:17;14.35;;;3.65;;
74614;SDS011;63121;51.458;-0.110;2023-06-14T08:37:43;11.00;;;3.03;;
74614;SDS011;63121;51.458;-0.110;2023-06-14T08:40:13;12.10;;;3.40;;
74614;SDS011;63121;51.458;-0.110;2023-06-14T08:42:42;13.75;;;3.35;;
74614;SDS011;63121;51.458;-0.110;2023-06-14T08:45:07;8.68;;;2.92;;
74614;SDS011;63121;51.458;-0.110;2023-06-14T08:47:33;11.30;;;3.10;;
74614;SDS011;63121;51.458;-0.110;2023-06-14T08:50:01;12.98;;;3.28;;
74614;SDS011;63121;51.458;-0.110;2023-06-14T08:52:29;11.57;;;3.67;;
74614;SDS011;63121;51.458;-0.110;2023-06-14T08:55:05;11.55;;;3.80;;
74614;SDS011;63121;51.458;-0.110;2023-06-14T08:57:31;10.43;;;3.08;;
74614;SDS011;63121;51.458;-0.110;2023-06-14T08:59:59;9.70;;;3.42;;
74614;SDS011;63121;51.458;-0.110;2023-06-14T09:02:30;13.38;;;4.07;;
74614;SDS011;63121;51.458;-0.110;2023-06-14T09:04:55;8.80;;;2.90;;
74614;SDS011;63121;51.458;-0.110;2023-06-14T09:07:24;12.55;;;3.65;;
74614;SDS011;63121;51.458;-0.110;2023-06-14T09:14:56;10.20;;;3.13;;
74614;SDS011;63121;51.458;-0.110;2023-06-14T09:17:21;10.17;;;3.53;;
74614;SDS011;63121;51.458;-0.110;2023-06-14T09:22:13;9.90;;;3.10;;
74614;SDS011;63121;51.458;-0.110;2023-06-14T09:24:41;9.63;;;3.47;;
74614;SDS011;63121;51.458;-0.110;2023-06-14T09:27:06;10.70;;;3.30;;
74614;SDS011;63121;51.458;-0.110;2023-06-14T09:29:33;11.77;;;3.35;;
74614;SDS011;63121;51.458;-0.110;2023-06-14T09:31:58;10.98;;;3.70;;
74614;SDS011;63121;51.458;-0.110;2023-06-14T09:34:24;12.27;;;3.75;;
74614;SDS011;63121;51.458;-0.110;2023-06-14T09:36:49;11.15;;;3.20;;
74614;SDS011;63121;51.458;-0.110;2023-06-14T09:39:16;11.57;;;3.08;;
74614;SDS011;63121;51.458;-0.110;2023-06-14T09:41:42;12.63;;;3.28;;
74614;SDS011;63121;51.458;-0.110;2023-06-14T09:44:09;9.20;;;3.17;;
74614;SDS011;63121;51.458;-0.110;2023-06-14T09:46:36;8.93;;;2.90;;
74614;SDS011;63121;51.458;-0.110;2023-06-14T09:49:02;10.68;;;3.58;;
74614;SDS011;63121;51.458;-0.110;2023-06-14T09:51:28;11.43;;;3.65;;
74614;SDS011;63121;51.458;-0.110;2023-06-14T09:54:00;12.48;;;3.95;;
74614;SDS011;63121;51.458;-0.110;2023-06-14T09:58:56;10.23;;;3.53;;
74614;SDS011;63121;51.458;-0.110;2023-06-14T10:01:23;11.88;;;4.10;;
74614;SDS011;63121;51.458;-0.110;2023-06-14T10:03:52;11.20;;;3.58;;
74614;SDS011;63121;51.458;-0.110;2023-06-14T10:06:25;10.98;;;3.63;;
74614;SDS011;63121;51.458;-0.110;2023-06-14T10:08:56;12.85;;;4.07;;
74614;SDS011;63121;51.458;-0.110;2023-06-14T10:11:24;12.40;;;3.78;;
74614;SDS011;63121;51.458;-0.110;2023-06-14T10:16:22;10.63;;;3.50;;
74614;SDS011;63121;51.458;-0.110;2023-06-14T10:19:00;12.48;;;3.63;;
74614;SDS011;63121;51.458;-0.110;2023-06-14T10:22:06;12.38;;;3.92;;
74614;SDS011;63121;51.458;-0.110;2023-06-14T10:24:33;12.98;;;4.28;;
74614;SDS011;63121;51.458;-0.110;2023-06-14T10:27:05;11.93;;;3.97;;
74614;SDS011;63121;51.458;-0.110;2023-06-14T10:29:35;13.77;;;4.07;;
74614;SDS011;63121;51.458;-0.110;2023-06-14T10:35:00;12.60;;;4.38;;
74614;SDS011;63121;51.458;-0.110;2023-06-14T10:37:30;12.30;;;4.07;;
74614;SDS011;63121;51.458;-0.110;2023-06-14T10:39:55;17.10;;;4.10;;
74614;SDS011;63121;51.458;-0.110;2023-06-14T10:42:21;10.75;;;3.53;;
74614;SDS011;63121;51.458;-0.110;2023-06-14T10:44:51;9.70;;;3.53;;
74614;SDS011;63121;51.458;-0.110;2023-06-14T10:47:30;10.23;;;3.95;;
74614;SDS011;63121;51.458;-0.110;2023-06-14T10:52:32;9.65;;;3.78;;
74614;SDS011;63121;51.458;-0.110;2023-06-14T10:57:36;15.45;;;4.20;;
74614;SDS011;63121;51.458;-0.110;2023-06-14T11:00:04;10.70;;;3.95;;
74614;SDS011;63121;51.458;-0.110;2023-06-14T11:10:26;13.45;;;4.22;;
74614;SDS011;63121;51.458;-0.110;2023-06-14T11:13:05;9.85;;;3.83;;
74614;SDS011;63121;51.458;-0.110;2023-06-14T11:15:32;11.02;;;3.75;;
74614;SDS011;63121;51.458;-0.110;2023-06-14T11:18:02;11.75;;;3.88;;
74614;SDS011;63121;51.458;-0.110;2023-06-14T11:20:30;10.00;;;4.10;;
74614;SDS011;63121;51.458;-0.110;2023-06-14T11:22:57;10.32;;;3.65;;
74614;SDS011;63121;51.458;-0.110;2023-06-14T11:25:22;14.93;;;3.42;;
74614;SDS011;63121;51.458;-0.110;2023-06-14T11:27:51;10.18;;;3.53;;
74614;SDS011;63121;51.458;-0.110;2023-06-14T11:30:17;7.15;;;3.13;;
74614;SDS011;63121;51.458;-0.110;2023-06-14T11:32:46;9.75;;;3.63;;
74614;SDS011;63121;51.458;-0.110;2023-06-14T11:35:12;10.32;;;3.78;;
74614;SDS011;63121;51.458;-0.110;2023-06-14T11:37:39;9.25;;;3.97;;
74614;SDS011;63121;51.458;-0.110;2023-06-14T11:40:06;12.18;;;4.05;;
74614;SDS011;63121;51.458;-0.110;2023-06-14T11:42:35;11.02;;;3.72;;
74614;SDS011;63121;51.458;-0.110;2023-06-14T11:45:01;9.30;;;3.53;;
74614;SDS011;63121;51.458;-0.110;2023-06-14T11:47:31;11.15;;;3.83;;
74614;SDS011;63121;51.458;-0.110;2023-06-14T11:49:58;9.38;;;3.78;;
74614;SDS011;63121;51.458;-0.110;2023-06-14T11:52:27;9.82;;;4.10;;
74614;SDS011;63121;51.458;-0.110;2023-06-14T11:54:53;12.35;;;4.05;;
74614;SDS011;63121;51.458;-0.110;2023-06-14T11:57:19;8.80;;;3.58;;
74614;SDS011;63121;51.458;-0.110;2023-06-14T11:59:45;9.77;;;3.85;;
74614;SDS011;63121;51.458;-0.110;2023-06-14T12:02:14;10.25;;;3.90;;
74614;SDS011;63121;51.458;-0.110;2023-06-14T12:04:43;10.63;;;3.47;;
74614;SDS011;63121;51.458;-0.110;2023-06-14T12:07:12;10.30;;;4.07;;
74614;SDS011;63121;51.458;-0.110;2023-06-14T12:10:04;10.70;;;3.70;;
74614;SDS011;63121;51.458;-0.110;2023-06-14T12:12:34;10.80;;;4.50;;
74614;SDS011;63121;51.458;-0.110;2023-06-14T12:15:05;12.23;;;4.32;;
74614;SDS011;63121;51.458;-0.110;2023-06-14T12:17:33;11.32;;;4.10;;
74614;SDS011;63121;51.458;-0.110;2023-06-14T12:20:04;10.55;;;3.72;;
74614;SDS011;63121;51.458;-0.110;2023-06-14T12:22:33;9.95;;;4.00;;
74614;SDS011;63121;51.458;-0.110;2023-06-14T12:24:59;12.98;;;4.05;;
74614;SDS011;63121;51.458;-0.110;2023-06-14T12:27:25;11.50;;;4.00;;
74614;SDS011;63121;51.458;-0.110;2023-06-14T12:30:03;12.88;;;4.15;;
74614;SDS011;63121;51.458;-0.110;2023-06-14T12:32:30;9.88;;;3.97;;
74614;SDS011;63121;51.458;-0.110;2023-06-14T12:34:55;11.20;;;3.72;;
74614;SDS011;63121;51.458;-0.110;2023-06-14T12:37:21;9.47;;;3.53;;
74614;SDS011;63121;51.458;-0.110;2023-06-14T12:39:46;10.52;;;3.53;;
74614;SDS011;63121;51.458;-0.110;2023-06-14T12:42:12;8.95;;;3.58;;
74614;SDS011;63121;51.458;-0.110;2023-06-14T12:44:39;10.13;;;3.60;;
74614;SDS011;63121;51.458;-0.110;2023-06-14T12:47:06;8.90;;;3.20;;
74614;SDS011;63121;51.458;-0.110;2023-06-14T12:49:32;8.30;;;3.65;;
74614;SDS011;63121;51.458;-0.110;2023-06-14T12:51:58;10.02;;;3.70;;
74614;SDS011;63121;51.458;-0.110;2023-06-14T12:54:23;9.98;;;3.58;;
74614;SDS011;63121;51.458;-0.110;2023-06-14T12:56:50;11.20;;;4.05;;
74614;SDS011;63121;51.458;-0.110;2023-06-14T12:59:16;8.20;;;3.63;;
74614;SDS011;63121;51.458;-0.110;2023-06-14T13:01:43;9.93;;;3.83;;
74614;SDS011;63121;51.458;-0.110;2023-06-14T13:06:35;8.77;;;3.58;;
74614;SDS011;63121;51.458;-0.110;2023-06-14T13:09:00;10.50;;;3.60;;
74614;SDS011;63121;51.458;-0.110;2023-06-14T13:11:26;11.43;;;3.72;;
74614;SDS011;63121;51.458;-0.110;2023-06-14T13:13:52;13.55;;;3.78;;
74614;SDS011;63121;51.458;-0.110;2023-06-14T13:16:17;9.00;;;4.40;;
74614;SDS011;63121;51.458;-0.110;2023-06-14T13:18:43;13.45;;;3.70;;
74614;SDS011;63121;51.458;-0.110;2023-06-14T13:21:08;10.57;;;3.90;;
74614;SDS011;63121;51.458;-0.110;2023-06-14T13:23:33;9.57;;;3.60;;
74614;SDS011;63121;51.458;-0.110;2023-06-14T13:25:59;9.77;;;3.58;;
74614;SDS011;63121;51.458;-0.110;2023-06-14T13:28:24;8.65;;;3.70;;
74614;SDS011;63121;51.458;-0.110;2023-06-14T13:30:49;12.03;;;3.70;;
74614;SDS011;63121;51.458;-0.110;2023-06-14T13:33:15;10.65;;;3.78;;
74614;SDS011;63121;51.458;-0.110;2023-06-14T13:35:41;9.15;;;3.60;;
74614;SDS011;63121;51.458;-0.110;2023-06-14T13:38:06;12.23;;;4.00;;
74614;SDS011;63121;51.458;-0.110;2023-06-14T13:40:34;9.27;;;3.97;;
74614;SDS011;63121;51.458;-0.110;2023-06-14T13:42:59;8.20;;;3.45;;
74614;SDS011;63121;51.458;-0.110;2023-06-14T13:45:25;9.52;;;3.40;;
74614;SDS011;63121;51.458;-0.110;2023-06-14T13:47:50;9.52;;;4.10;;
74614;SDS011;63121;51.458;-0.110;2023-06-14T13:50:16;9.10;;;3.90;;
74614;SDS011;63121;51.458;-0.110;2023-06-14T13:52:42;8.05;;;3.67;;
74614;SDS011;63121;51.458;-0.110;2023-06-14T13:55:08;10.07;;;3.80;;
74614;SDS011;63121;51.458;-0.110;2023-06-14T13:57:34;10.13;;;3.83;;
74614;SDS011;63121;51.458;-0.110;2023-06-14T14:00:00;8.07;;;3.53;;
74614;SDS011;63121;51.458;-0.110;2023-06-14T14:02:28;8.95;;;3.83;;
74614;SDS011;63121;51.458;-0.110;2023-06-14T14:04:54;8.68;;;3.70;;
74614;SDS011;63121;51.458;-0.110;2023-06-14T14:07:20;9.25;;;4.07;;
74614;SDS011;63121;51.458;-0.110;2023-06-14T14:12:12;10.60;;;4.00;;
74614;SDS011;63121;51.458;-0.110;2023-06-14T14:14:39;10.05;;;4.00;;
74614;SDS011;63121;51.458;-0.110;2023-06-14T14:17:04;8.32;;;3.85;;
74614;SDS011;63121;51.458;-0.110;2023-06-14T14:19:30;9.43;;;4.30;;
74614;SDS011;63121;51.458;-0.110;2023-06-14T14:21:56;10.18;;;4.00;;
74614;SDS011;63121;51.458;-0.110;2023-06-14T14:24:21;9.57;;;4.25;;
74614;SDS011;63121;51.458;-0.110;2023-06-14T14:26:46;9.82;;;4.13;;
74614;SDS011;63121;51.458;-0.110;2023-06-14T14:29:17;9.57;;;4.38;;
74614;SDS011;63121;51.458;-0.110;2023-06-14T14:31:42;14.25;;;4.25;;
74614;SDS011;63121;51.458;-0.110;2023-06-14T14:34:08;9.30;;;3.60;;
74614;SDS011;63121;51.458;-0.110;2023-06-14T14:36:33;7.60;;;4.17;;
74614;SDS011;63121;51.458;-0.110;2023-06-14T14:39:01;10.05;;;3.85;;
74614;SDS011;63121;51.458;-0.110;2023-06-14T14:41:27;7.80;;;3.40;;
74614;SDS011;63121;51.458;-0.110;2023-06-14T14:43:52;11.32;;;4.32;;
74614;SDS011;63121;51.458;-0.110;2023-06-14T14:46:18;9.02;;;4.20;;
74614;SDS011;63121;51.458;-0.110;2023-06-14T14:48:43;11.52;;;4.65;;
74614;SDS011;63121;51.458;-0.110;2023-06-14T14:51:08;10.83;;;4.37;;
74614;SDS011;63121;51.458;-0.110;2023-06-14T14:53:34;8.73;;;4.50;;
74614;SDS011;63121;51.458;-0.110;2023-06-14T14:55:59;9.88;;;4.32;;
74614;SDS011;63121;51.458;-0.110;2023-06-14T14:58:25;12.73;;;3.85;;
74614;SDS011;63121;51.458;-0.110;2023-06-14T15:00:50;10.00;;;3.97;;
74614;SDS011;63121;51.458;-0.110;2023-06-14T15:03:15;11.23;;;3.50;;
74614;SDS011;63121;51.458;-0.110;2023-06-14T15:05:41;8.10;;;4.00;;